Time;durP1;ratioP1;P1;durP2;ratioP2;P2;SDS_P1;SDS_P2;PMS_P1;PMS_P2;Temp;Humidity;BMP_temperature;BMP_pressure;BME280_temperature;BME280_humidity;BME280_pressure;Samples;Min_cycle;Max_cycle;Signal;HPM_P1;HPM_P2
2021/09/03 00:00:27;;;;;;;24.13;19.20;;;14.30;99.90;;;;;;5046430;28;20175;-65
2021/09/03 00:02:53;;;;;;;22.23;18.50;;;14.30;99.90;;;;;;5051682;28;20175;-66
2021/09/03 00:05:20;;;;;;;27.33;18.53;;;14.30;99.90;;;;;;5038105;28;20179;-66
2021/09/03 00:07:47;;;;;;;23.57;18.70;;;14.20;99.90;;;;;;5042783;28;20178;-65
2021/09/03 00:10:15;;;;;;;22.30;17.90;;;14.20;99.90;;;;;;5051109;28;20206;-66
2021/09/03 00:12:41;;;;;;;23.50;19.13;;;14.20;99.90;;;;;;5046584;28;20175;-66
2021/09/03 00:15:10;;;;;;;26.17;20.23;;;14.20;99.90;;;;;;5051564;28;20305;-65
2021/09/03 00:17:36;;;;;;;31.23;21.27;;;14.10;99.90;;;;;;5043452;28;20317;-65
2021/09/03 00:20:03;;;;;;;30.83;23.13;;;13.90;99.90;;;;;;5031144;28;20683;-65
2021/09/03 00:22:28;;;;;;;31.13;23.87;;;13.80;99.90;;;;;;5038084;28;20175;-65
2021/09/03 00:24:54;;;;;;;35.50;24.93;;;13.80;99.90;;;;;;5051338;28;20167;-66
2021/09/03 00:27:20;;;;;;;32.57;24.60;;;13.80;99.90;;;;;;5046436;28;20175;-65
2021/09/03 00:29:45;;;;;;;33.80;23.77;;;13.80;99.90;;;;;;5031170;28;20242;-65
2021/09/03 00:32:11;;;;;;;32.53;23.50;;;13.80;99.90;;;;;;5033889;28;20254;-66
2021/09/03 00:34:36;;;;;;;31.83;24.57;;;13.80;99.90;;;;;;5031566;28;20176;-66
2021/09/03 00:37:02;;;;;;;33.77;23.90;;;13.80;99.90;;;;;;5032064;28;20667;-65
2021/09/03 00:39:28;;;;;;;33.77;23.77;;;13.80;99.90;;;;;;5049755;28;20210;-65
2021/09/03 00:41:53;;;;;;;35.40;25.13;;;13.80;99.90;;;;;;5051333;28;20217;-65
2021/09/03 00:44:19;;;;;;;30.27;23.80;;;13.80;99.90;;;;;;5033119;28;20187;-65
2021/09/03 00:46:45;;;;;;;32.83;25.13;;;13.80;99.90;;;;;;5031337;28;20222;-65
2021/09/03 00:49:10;;;;;;;49.70;26.00;;;13.80;99.90;;;;;;5048259;28;20577;-65
2021/09/03 00:51:37;;;;;;;35.23;24.73;;;13.80;99.90;;;;;;5050938;28;20167;-66
2021/09/03 00:54:03;;;;;;;38.10;25.53;;;13.80;99.90;;;;;;5038727;28;20179;-65
2021/09/03 00:56:28;;;;;;;38.53;25.53;;;13.80;99.90;;;;;;5050000;28;20183;-65
2021/09/03 00:58:54;;;;;;;32.50;24.03;;;13.90;99.90;;;;;;5035885;28;20629;-65
2021/09/03 01:01:21;;;;;;;40.63;26.60;;;13.90;99.90;;;;;;5036122;28;20187;-65
2021/09/03 01:03:47;;;;;;;41.07;26.43;;;13.80;99.90;;;;;;5051209;28;20171;-65
2021/09/03 01:06:13;;;;;;;34.57;26.13;;;13.80;99.90;;;;;;5045803;28;21024;-65
2021/09/03 01:08:38;;;;;;;38.47;25.80;;;13.80;99.90;;;;;;5031084;28;20202;-65
2021/09/03 01:11:04;;;;;;;36.77;24.97;;;13.70;99.90;;;;;;5033631;28;20179;-65
2021/09/03 01:13:30;;;;;;;33.00;24.50;;;13.60;99.90;;;;;;5051060;28;20181;-66
2021/09/03 01:15:56;;;;;;;36.87;25.37;;;13.60;99.90;;;;;;5041461;28;20186;-65
2021/09/03 01:18:21;;;;;;;40.17;25.67;;;13.60;99.90;;;;;;5051074;28;20239;-65
2021/09/03 01:20:47;;;;;;;37.07;24.70;;;13.60;99.90;;;;;;5033871;28;20206;-66
2021/09/03 01:23:13;;;;;;;38.50;27.23;;;13.60;99.90;;;;;;5030937;28;20188;-65
2021/09/03 01:25:40;;;;;;;41.60;27.13;;;13.50;99.90;;;;;;5044252;28;20191;-65
2021/09/03 01:28:06;;;;;;;39.77;27.70;;;13.50;99.90;;;;;;5034172;28;20218;-65
2021/09/03 01:30:32;;;;;;;43.67;27.57;;;13.40;99.90;;;;;;5046902;28;20238;-65
2021/09/03 01:32:57;;;;;;;46.23;28.80;;;13.40;99.90;;;;;;5054311;28;20250;-65
2021/09/03 01:35:23;;;;;;;42.33;27.23;;;13.40;99.90;;;;;;5043168;28;20580;-65
2021/09/03 01:37:49;;;;;;;40.43;26.57;;;13.30;99.90;;;;;;5034447;28;20207;-65
2021/09/03 01:40:15;;;;;;;45.33;28.87;;;13.30;99.90;;;;;;5042781;28;20246;-65
2021/09/03 01:42:41;;;;;;;46.97;29.97;;;13.30;99.90;;;;;;5054465;28;20549;-66
2021/09/03 01:45:07;;;;;;;42.47;27.40;;;13.20;99.90;;;;;;5045278;28;20274;-65
2021/09/03 01:47:32;;;;;;;40.30;28.33;;;13.20;99.90;;;;;;5034289;28;20180;-65
2021/09/03 01:49:58;;;;;;;41.43;26.27;;;13.20;99.90;;;;;;5040327;28;20278;-64
2021/09/03 01:52:24;;;;;;;40.33;26.47;;;13.10;99.90;;;;;;5054033;28;20228;-65
2021/09/03 01:54:50;;;;;;;41.40;25.60;;;13.10;99.90;;;;;;5044107;28;20671;-65
2021/09/03 01:57:15;;;;;;;36.90;24.80;;;13.20;99.90;;;;;;5034028;28;20254;-65
2021/09/03 01:59:41;;;;;;;36.53;22.87;;;13.10;99.90;;;;;;5041291;28;20252;-65
2021/09/03 02:02:07;;;;;;;32.90;24.10;;;13.10;99.90;;;;;;5052144;28;20187;-65
2021/09/03 02:04:32;;;;;;;37.53;24.27;;;13.10;99.90;;;;;;5052512;28;20232;-65
2021/09/03 02:06:58;;;;;;;37.40;23.67;;;13.00;99.90;;;;;;5053406;28;20186;-65
2021/09/03 02:09:24;;;;;;;35.23;23.57;;;13.00;99.90;;;;;;5033537;28;20214;-65
2021/09/03 02:11:49;;;;;;;37.40;24.87;;;12.90;99.90;;;;;;5038409;28;20369;-65
2021/09/03 02:14:15;;;;;;;40.90;26.73;;;12.80;99.90;;;;;;5053685;28;20170;-65
2021/09/03 02:16:41;;;;;;;51.23;29.13;;;12.80;99.90;;;;;;5050663;28;20203;-65
2021/09/03 02:19:07;;;;;;;57.03;30.23;;;12.80;99.90;;;;;;5033359;28;20599;-64
2021/09/03 02:21:33;;;;;;;45.80;30.83;;;12.80;99.90;;;;;;5034422;28;20195;-65
2021/09/03 02:23:58;;;;;;;47.53;30.70;;;12.70;99.90;;;;;;5033642;28;20566;-65
2021/09/03 02:26:24;;;;;;;47.50;29.10;;;12.70;99.90;;;;;;5047486;28;20209;-66
2021/09/03 02:28:50;;;;;;;47.13;28.70;;;12.70;99.90;;;;;;5053194;28;20214;-65
2021/09/03 02:31:15;;;;;;;48.07;29.30;;;12.70;99.90;;;;;;5040621;28;20763;-64
2021/09/03 02:33:41;;;;;;;46.57;28.90;;;12.70;99.90;;;;;;5033468;28;20180;-64
2021/09/03 02:36:07;;;;;;;40.30;27.37;;;12.60;99.90;;;;;;5043483;28;20191;-65
2021/09/03 02:38:33;;;;;;;45.77;27.23;;;12.60;99.90;;;;;;5050306;28;20210;-65
2021/09/03 02:40:59;;;;;;;42.37;27.03;;;12.60;99.90;;;;;;5043948;28;20187;-65
2021/09/03 02:43:25;;;;;;;39.23;26.27;;;12.70;99.90;;;;;;5033374;28;20214;-65
2021/09/03 02:45:51;;;;;;;40.77;26.30;;;12.70;99.90;;;;;;5039772;28;20179;-65
2021/09/03 02:48:16;;;;;;;39.17;27.60;;;12.70;99.90;;;;;;5052938;28;20202;-65
2021/09/03 02:50:42;;;;;;;41.20;26.43;;;12.60;99.90;;;;;;5047739;28;20211;-64
2021/09/03 02:53:08;;;;;;;38.43;25.57;;;12.60;99.90;;;;;;5032836;28;20198;-65
2021/09/03 02:55:33;;;;;;;45.23;28.87;;;12.50;99.90;;;;;;5034155;28;20198;-65
2021/09/03 02:57:59;;;;;;;39.83;26.70;;;12.50;99.90;;;;;;5032818;28;20183;-65
2021/09/03 03:00:25;;;;;;;46.93;27.63;;;12.50;99.90;;;;;;5037821;28;20175;-65
2021/09/03 03:02:53;;;;;;;45.17;28.63;;;12.50;99.90;;;;;;5052630;28;20239;-64
2021/09/03 03:05:21;;;;;;;50.53;30.20;;;12.40;99.90;;;;;;5048546;28;20186;-65
2021/09/03 03:07:46;;;;;;;51.57;30.97;;;12.30;99.90;;;;;;5031870;28;20554;-65
2021/09/03 03:10:12;;;;;;;48.07;31.23;;;12.40;99.90;;;;;;5034350;28;20225;-65
2021/09/03 03:12:37;;;;;;;45.40;27.97;;;12.40;99.90;;;;;;5043274;28;20180;-65
2021/09/03 03:15:05;;;;;;;49.43;29.67;;;12.30;99.90;;;;;;5032606;28;20237;-65
2021/09/03 03:17:30;;;;;;;52.80;30.53;;;12.30;99.90;;;;;;5052515;28;20202;-65
2021/09/03 03:19:56;;;;;;;50.10;31.53;;;12.30;99.90;;;;;;5052129;28;20234;-65
2021/09/03 03:22:22;;;;;;;44.40;28.43;;;12.30;99.90;;;;;;5033375;28;20197;-65
2021/09/03 03:24:47;;;;;;;49.87;29.97;;;12.30;99.90;;;;;;5032457;28;20226;-64
2021/09/03 03:27:13;;;;;;;43.50;28.77;;;12.20;99.90;;;;;;5033463;28;20187;-64
2021/09/03 03:29:39;;;;;;;39.03;25.77;;;12.20;99.90;;;;;;5032014;28;20672;-65
2021/09/03 03:32:04;;;;;;;46.83;28.40;;;12.20;99.90;;;;;;5046851;28;20183;-64
2021/09/03 03:34:30;;;;;;;51.17;30.63;;;12.20;99.90;;;;;;5052171;28;20229;-65
2021/09/03 03:36:56;;;;;;;44.13;30.40;;;12.10;99.90;;;;;;5046274;28;20175;-65
2021/09/03 03:39:21;;;;;;;41.90;28.53;;;12.20;99.90;;;;;;5037353;28;20218;-66
2021/09/03 03:41:47;;;;;;;43.03;29.77;;;12.10;99.90;;;;;;5050358;28;20191;-65
2021/09/03 03:44:13;;;;;;;47.87;28.97;;;12.10;99.90;;;;;;5049536;28;20214;-65
2021/09/03 03:46:38;;;;;;;50.57;31.73;;;12.10;99.90;;;;;;5032068;28;20179;-65
2021/09/03 03:49:04;;;;;;;50.57;29.97;;;12.10;99.90;;;;;;5030434;28;20273;-65
2021/09/03 03:51:29;;;;;;;48.77;29.67;;;12.00;99.90;;;;;;5051561;28;20170;-65
2021/09/03 03:53:55;;;;;;;48.83;28.67;;;12.10;99.90;;;;;;5051834;28;20723;-65
2021/09/03 03:56:20;;;;;;;47.43;28.80;;;12.00;99.90;;;;;;5033041;28;20186;-66
2021/09/03 03:58:46;;;;;;;47.03;28.23;;;12.00;99.90;;;;;;5032959;28;20216;-65
2021/09/03 04:01:12;;;;;;;51.40;30.00;;;12.00;99.90;;;;;;5047764;28;20185;-64
2021/09/03 04:03:38;;;;;;;47.67;28.47;;;11.90;99.90;;;;;;5051487;28;20377;-65
2021/09/03 04:06:04;;;;;;;49.67;28.07;;;12.00;99.90;;;;;;5031723;28;20593;-65
2021/09/03 04:08:30;;;;;;;43.57;27.83;;;11.90;99.90;;;;;;5030376;28;20234;-65
2021/09/03 04:10:55;;;;;;;47.43;29.03;;;11.90;99.90;;;;;;5049260;28;20191;-64
2021/09/03 04:13:21;;;;;;;47.90;28.10;;;11.90;99.90;;;;;;5035717;28;20190;-66
2021/09/03 04:15:46;;;;;;;49.20;28.83;;;11.90;99.90;;;;;;5031724;28;20675;-64
2021/09/03 04:18:12;;;;;;;42.73;28.43;;;11.90;99.90;;;;;;5032773;28;20183;-65
2021/09/03 04:20:38;;;;;;;38.83;27.90;;;12.00;99.90;;;;;;5031365;28;20647;-65
2021/09/03 04:23:04;;;;;;;42.23;28.70;;;11.90;99.90;;;;;;5046385;28;20543;-65
2021/09/03 04:25:30;;;;;;;45.97;29.33;;;11.90;99.90;;;;;;5051512;28;20178;-65
2021/09/03 04:27:55;;;;;;;46.83;28.33;;;11.90;99.90;;;;;;5038112;28;20183;-65
2021/09/03 04:30:21;;;;;;;48.90;27.93;;;11.90;99.90;;;;;;5045352;28;20671;-66
2021/09/03 04:32:47;;;;;;;53.40;29.77;;;11.80;99.90;;;;;;5031553;28;20305;-65
2021/09/03 04:35:12;;;;;;;44.87;28.17;;;11.80;99.90;;;;;;5032479;28;20426;-65
2021/09/03 04:37:40;;;;;;;50.77;29.07;;;11.80;99.90;;;;;;5031521;28;20640;-66
2021/09/03 04:40:06;;;;;;;50.87;29.43;;;11.80;99.90;;;;;;5054221;23;20231;-64
2021/09/03 04:42:31;;;;;;;45.57;29.30;;;11.70;99.90;;;;;;5031448;28;20254;-65
2021/09/03 04:44:57;;;;;;;54.80;29.93;;;11.70;99.90;;;;;;5029965;28;20267;-65
2021/09/03 04:47:22;;;;;;;54.23;30.57;;;11.70;99.90;;;;;;5031311;28;20178;-64
2021/09/03 04:49:48;;;;;;;54.43;31.00;;;11.70;99.90;;;;;;5030678;28;20210;-64
2021/09/03 04:52:14;;;;;;;55.13;29.43;;;11.70;99.90;;;;;;5030909;28;20182;-65
2021/09/03 04:54:39;;;;;;;48.67;28.83;;;11.70;99.90;;;;;;5029890;28;20581;-65
2021/09/03 04:57:05;;;;;;;50.00;28.67;;;11.70;99.90;;;;;;5031004;28;20171;-64
2021/09/03 04:59:30;;;;;;;53.57;29.23;;;11.70;99.90;;;;;;5030778;28;20743;-64
2021/09/03 05:01:56;;;;;;;47.23;28.40;;;11.60;99.90;;;;;;5032223;28;20183;-65
2021/09/03 05:04:21;;;;;;;47.67;28.73;;;11.60;99.90;;;;;;5034913;28;20179;-65
2021/09/03 05:06:47;;;;;;;49.03;28.17;;;11.70;99.90;;;;;;5034958;28;20179;-64
2021/09/03 05:09:12;;;;;;;53.53;30.87;;;11.70;99.90;;;;;;5034371;28;20740;-64
2021/09/03 05:11:38;;;;;;;52.30;28.77;;;11.70;99.90;;;;;;5034486;28;20176;-65
2021/09/03 05:14:04;;;;;;;55.90;30.83;;;11.80;99.90;;;;;;5034952;28;20293;-65
2021/09/03 05:16:29;;;;;;;68.33;33.10;;;11.80;99.90;;;;;;5034725;28;20317;-64
2021/09/03 05:18:55;;;;;;;72.17;35.40;;;11.80;99.90;;;;;;5034558;28;20196;-63
2021/09/03 05:21:21;;;;;;;57.27;33.80;;;11.90;99.90;;;;;;5034258;28;20175;-65
2021/09/03 05:23:46;;;;;;;63.47;32.07;;;11.90;99.90;;;;;;5034471;28;20202;-65
2021/09/03 05:26:12;;;;;;;64.67;33.83;;;12.00;99.90;;;;;;5034367;28;20179;-65
2021/09/03 05:28:38;;;;;;;57.87;33.43;;;12.00;99.90;;;;;;5034394;28;20176;-64
2021/09/03 05:31:04;;;;;;;65.30;33.83;;;12.00;99.90;;;;;;5033832;28;20259;-64
2021/09/03 05:33:30;;;;;;;61.87;32.60;;;12.00;99.90;;;;;;5034473;28;20302;-65
2021/09/03 05:35:55;;;;;;;60.27;33.57;;;12.20;99.90;;;;;;5034249;28;20190;-64
2021/09/03 05:38:21;;;;;;;60.83;32.30;;;12.20;99.90;;;;;;5033935;28;20179;-64
2021/09/03 05:40:47;;;;;;;58.47;32.03;;;12.40;99.90;;;;;;5022378;28;20271;-64
2021/09/03 05:43:12;;;;;;;62.23;33.73;;;12.40;99.90;;;;;;5034048;28;20183;-65
2021/09/03 05:45:38;;;;;;;58.17;30.80;;;12.60;99.90;;;;;;5020918;28;20192;-64
2021/09/03 05:48:04;;;;;;;57.80;30.97;;;12.70;99.90;;;;;;5014505;28;20667;-63
2021/09/03 05:50:30;;;;;;;51.33;30.00;;;12.80;99.90;;;;;;5030890;28;20238;-64
2021/09/03 05:52:56;;;;;;;50.03;29.13;;;12.90;99.90;;;;;;5033969;28;20243;-65
2021/09/03 05:55:22;;;;;;;41.97;28.73;;;13.00;99.90;;;;;;5033838;28;20184;-63
2021/09/03 05:57:51;;;;;;;42.40;29.30;;;13.00;99.90;;;;;;5033741;28;20250;-65
2021/09/03 06:00:17;;;;;;;42.30;25.80;;;13.10;99.90;;;;;;5017027;28;20291;-64
2021/09/03 06:02:42;;;;;;;41.47;29.57;;;13.10;99.90;;;;;;5017244;28;20242;-63
2021/09/03 06:05:08;;;;;;;45.40;27.97;;;13.20;99.90;;;;;;5033744;28;20525;-64
2021/09/03 06:07:34;;;;;;;40.50;27.80;;;13.30;99.90;;;;;;5015168;28;20294;-64
2021/09/03 06:09:59;;;;;;;46.97;28.20;;;13.40;99.90;;;;;;5032490;28;20252;-64
2021/09/03 06:12:25;;;;;;;39.23;27.10;;;13.50;99.90;;;;;;5025448;28;20587;-63
2021/09/03 06:14:51;;;;;;;39.27;26.10;;;13.70;99.90;;;;;;5019445;28;20175;-63
2021/09/03 06:17:18;;;;;;;34.07;26.37;;;14.00;99.90;;;;;;5031879;28;20171;-65
2021/09/03 06:19:44;;;;;;;33.23;23.73;;;14.40;99.90;;;;;;5022247;28;20199;-64
2021/09/03 06:22:09;;;;;;;30.97;22.93;;;14.80;99.90;;;;;;5033459;28;20172;-65
2021/09/03 06:24:35;;;;;;;21.20;19.20;;;15.30;99.90;;;;;;5018118;28;20203;-64
2021/09/03 06:27:03;;;;;;;17.80;16.00;;;15.70;99.90;;;;;;5013475;28;20542;-65
2021/09/03 06:29:42;;;;;;;15.00;13.50;;;16.10;99.90;;;;;;5013364;28;20218;-65
2021/09/03 06:32:15;;;;;;;15.80;14.23;;;16.60;99.90;;;;;;5013829;28;20214;-65
2021/09/03 06:34:47;;;;;;;17.87;14.40;;;17.10;99.90;;;;;;5033537;28;20176;-65
2021/09/03 06:37:14;;;;;;;14.57;13.07;;;17.60;99.90;;;;;;5032225;28;20178;-65
2021/09/03 06:39:41;;;;;;;14.60;12.93;;;18.10;99.90;;;;;;5013148;28;20204;-65
2021/09/03 06:42:08;;;;;;;15.13;13.60;;;18.70;99.90;;;;;;5013363;28;20196;-65
2021/09/03 06:44:35;;;;;;;12.83;11.57;;;19.20;99.90;;;;;;5032991;28;20218;-64
2021/09/03 06:47:00;;;;;;;13.60;12.17;;;19.50;99.90;;;;;;5032951;28;20186;-65
2021/09/03 06:49:26;;;;;;;14.20;12.03;;;19.90;99.90;;;;;;5032498;28;20211;-65
2021/09/03 06:51:52;;;;;;;12.67;11.37;;;20.00;99.90;;;;;;5033028;28;20171;-64
2021/09/03 06:54:17;;;;;;;14.97;12.83;;;20.30;99.90;;;;;;5033015;28;20691;-64
2021/09/03 06:56:43;;;;;;;13.15;11.82;;;20.70;99.90;;;;;;5032993;28;20528;-64
2021/09/03 06:59:09;;;;;;;13.25;11.60;;;20.80;99.90;;;;;;5032506;28;20191;-63
2021/09/03 07:01:35;;;;;;;12.48;11.13;;;21.00;99.90;;;;;;5032283;28;20241;-64
2021/09/03 07:04:00;;;;;;;15.70;11.55;;;21.10;99.90;;;;;;5032035;28;20191;-64
2021/09/03 07:06:26;;;;;;;12.57;11.27;;;21.30;99.90;;;;;;5032873;28;20209;-64
2021/09/03 07:08:52;;;;;;;12.82;11.20;;;21.50;99.90;;;;;;5032504;28;20199;-64
2021/09/03 07:11:17;;;;;;;11.85;10.65;;;21.70;99.90;;;;;;5026262;28;20196;-63
2021/09/03 07:13:43;;;;;;;16.00;10.80;;;21.90;99.90;;;;;;5012849;28;20176;-64
2021/09/03 07:16:09;;;;;;;12.75;11.45;;;22.20;99.90;;;;;;5016336;28;20695;-64
2021/09/03 07:18:34;;;;;;;11.80;10.48;;;22.40;99.90;;;;;;5032525;28;20191;-64
2021/09/03 07:21:00;;;;;;;14.43;11.32;;;22.70;99.90;;;;;;5029622;28;20266;-64
2021/09/03 07:23:25;;;;;;;11.13;9.98;;;22.80;99.90;;;;;;5012609;28;20180;-64
2021/09/03 07:25:51;;;;;;;12.65;11.13;;;22.80;99.90;;;;;;5029990;28;20191;-63
2021/09/03 07:28:17;;;;;;;11.45;10.32;;;22.80;99.90;;;;;;5032222;28;20183;-64
2021/09/03 07:30:42;;;;;;;11.05;9.93;;;22.80;99.90;;;;;;5015309;28;20622;-64
2021/09/03 07:33:08;;;;;;;11.25;10.15;;;22.70;99.90;;;;;;5012280;28;20183;-64
2021/09/03 07:35:34;;;;;;;11.27;9.98;;;22.90;99.90;;;;;;5026214;28;20180;-64
2021/09/03 07:38:00;;;;;;;12.70;10.32;;;23.20;99.90;;;;;;5032149;28;20290;-65
2021/09/03 07:40:27;;;;;;;11.20;10.10;;;23.40;99.90;;;;;;5030653;28;20215;-64
2021/09/03 07:42:53;;;;;;;12.90;9.73;;;23.50;99.90;;;;;;5032054;28;20178;-64
2021/09/03 07:45:18;;;;;;;10.85;9.85;;;23.50;99.90;;;;;;5031563;28;20175;-64
2021/09/03 07:47:44;;;;;;;12.63;10.30;;;23.50;99.90;;;;;;5032011;28;20167;-64
2021/09/03 07:50:10;;;;;;;11.27;9.57;;;23.50;99.90;;;;;;5031226;28;20214;-64
2021/09/03 07:52:35;;;;;;;11.00;10.00;;;23.90;99.90;;;;;;5031976;28;20178;-64
2021/09/03 07:55:01;;;;;;;10.85;9.10;;;24.20;99.90;;;;;;5030883;28;20214;-64
2021/09/03 07:57:27;;;;;;;11.10;10.00;;;24.60;99.90;;;;;;5031633;28;20159;-64
2021/09/03 07:59:52;;;;;;;10.60;9.60;;;24.90;99.90;;;;;;5031067;28;20234;-64
2021/09/03 08:02:18;;;;;;;11.32;10.13;;;25.20;99.90;;;;;;5031676;28;20197;-64
2021/09/03 08:04:44;;;;;;;10.27;9.18;;;25.40;99.90;;;;;;5031750;28;20194;-64
2021/09/03 08:07:09;;;;;;;10.57;9.48;;;25.60;99.90;;;;;;5031508;28;20184;-64
2021/09/03 08:09:35;;;;;;;11.32;9.82;;;25.50;99.90;;;;;;5031331;28;20211;-64
2021/09/03 08:12:00;;;;;;;10.73;9.57;;;25.10;99.90;;;;;;5031212;28;20191;-64
2021/09/03 08:14:26;;;;;;;10.18;9.18;;;25.30;99.90;;;;;;5031450;28;20262;-64
2021/09/03 08:16:51;;;;;;;10.65;9.65;;;25.30;99.90;;;;;;5031698;28;20198;-64
2021/09/03 08:19:17;;;;;;;12.95;9.50;;;24.90;99.90;;;;;;5031020;28;20277;-64
2021/09/03 08:21:43;;;;;;;12.25;9.40;;;25.10;99.90;;;;;;5031727;28;20171;-64
2021/09/03 08:24:08;;;;;;;10.32;9.32;;;25.60;99.90;;;;;;5031246;28;20175;-64
2021/09/03 08:26:34;;;;;;;11.38;10.27;;;26.10;99.90;;;;;;5031598;28;20814;-64
2021/09/03 08:29:00;;;;;;;10.43;9.30;;;26.10;99.90;;;;;;5031186;28;20214;-64
2021/09/03 08:31:26;;;;;;;10.90;9.77;;;26.20;99.90;;;;;;5031021;28;20163;-64
2021/09/03 08:33:51;;;;;;;12.85;11.48;;;26.40;99.90;;;;;;5031323;28;20258;-63
2021/09/03 08:36:17;;;;;;;9.98;8.98;;;26.50;99.90;;;;;;5031510;28;20167;-64
2021/09/03 08:38:43;;;;;;;11.10;10.10;;;26.80;99.90;;;;;;5035244;28;20233;-64
2021/09/03 08:41:09;;;;;;;10.10;9.13;;;27.10;99.90;;;;;;5034883;28;20550;-64
2021/09/03 08:43:35;;;;;;;12.85;9.52;;;27.40;99.90;;;;;;5035575;28;20176;-64
2021/09/03 08:46:02;;;;;;;11.35;10.32;;;27.40;99.90;;;;;;5034917;28;20182;-64
2021/09/03 08:48:27;;;;;;;10.80;9.80;;;27.50;99.90;;;;;;5034660;28;20633;-64
2021/09/03 08:50:55;;;;;;;11.13;9.80;;;27.90;99.90;;;;;;5034810;28;20253;-64
2021/09/03 08:53:22;;;;;;;10.75;9.60;;;28.10;99.90;;;;;;5034585;28;20259;-64
2021/09/03 08:55:51;;;;;;;11.02;9.23;;;28.20;99.90;;;;;;5035086;28;20194;-64
2021/09/03 08:58:16;;;;;;;10.35;9.23;;;28.40;99.90;;;;;;5034787;28;20179;-64
2021/09/03 09:00:43;;;;;;;11.20;9.18;;;28.60;99.90;;;;;;5034635;28;20195;-64
2021/09/03 09:03:10;;;;;;;10.93;9.45;;;28.40;99.90;;;;;;5034546;28;20686;-64
2021/09/03 09:05:59;;;;;;;13.05;10.05;;;28.60;99.90;;;;;;5034586;28;20175;-64
2021/09/03 09:08:26;;;;;;;10.73;8.98;;;29.00;99.90;;;;;;5034525;28;20596;-64
2021/09/03 09:11:00;;;;;;;9.73;8.82;;;29.10;99.90;;;;;;5034439;28;20294;-65
2021/09/03 09:13:32;;;;;;;10.77;9.68;;;29.60;99.90;;;;;;5034462;28;20255;-64
2021/09/03 09:15:58;;;;;;;10.40;9.40;;;29.60;99.90;;;;;;5015156;28;20172;-63
2021/09/03 09:18:43;;;;;;;12.50;9.20;;;29.60;99.90;;;;;;5015032;28;20654;-64
2021/09/03 09:21:28;;;;;;;12.05;9.30;;;29.70;99.90;;;;;;5014164;28;20200;-63
2021/09/03 09:23:56;;;;;;;10.98;9.88;;;30.00;99.90;;;;;;5017667;28;20225;-64
2021/09/03 09:26:46;;;;;;;10.38;9.20;;;30.00;99.90;;;;;;5034426;28;20207;-64
2021/09/03 09:29:18;;;;;;;9.13;8.30;;;29.90;99.90;;;;;;5034046;28;20286;-65
2021/09/03 09:31:45;;;;;;;13.02;9.38;;;29.30;99.90;;;;;;5034461;28;20533;-64
2021/09/03 09:34:17;;;;;;;10.02;9.13;;;29.50;99.90;;;;;;5034236;28;20230;-64
2021/09/03 09:36:43;;;;;;;10.18;9.27;;;29.70;99.90;;;;;;5034426;28;20262;-64
2021/09/03 09:39:09;;;;;;;12.07;10.07;;;30.00;99.90;;;;;;5033526;28;20298;-64
2021/09/03 09:41:35;;;;;;;14.85;9.75;;;30.00;99.90;;;;;;5033973;28;20221;-64
2021/09/03 09:44:00;;;;;;;10.80;9.70;;;30.40;99.90;;;;;;5033934;28;20172;-63
2021/09/03 09:46:30;;;;;;;9.35;8.45;;;30.20;99.90;;;;;;5033723;28;20262;-64
2021/09/03 09:49:07;;;;;;;11.23;8.38;;;30.30;99.90;;;;;;5030069;28;20205;-64
2021/09/03 09:51:33;;;;;;;9.32;8.48;;;30.70;99.90;;;;;;5033657;28;20171;-64
2021/09/03 09:54:14;;;;;;;8.88;8.07;;;30.60;99.90;;;;;;5033922;28;20179;-64
2021/09/03 09:56:43;;;;;;;12.18;8.23;;;30.60;99.90;;;;;;5033770;28;20182;-63
2021/09/03 09:59:10;;;;;;;10.35;8.38;;;30.60;99.90;;;;;;5033488;28;20191;-64
2021/09/03 10:01:38;;;;;;;9.82;8.82;;;30.60;99.90;;;;;;5033500;28;20224;-64
2021/09/03 10:04:06;;;;;;;9.30;8.43;;;30.60;99.90;;;;;;5013818;28;20219;-64
2021/09/03 10:06:33;;;;;;;10.18;9.18;;;30.80;99.90;;;;;;5027417;28;20179;-64
2021/09/03 10:08:59;;;;;;;11.38;8.60;;;30.70;99.90;;;;;;5033358;28;20195;-64
2021/09/03 10:11:25;;;;;;;9.45;8.55;;;30.50;99.90;;;;;;5032965;28;20593;-64
2021/09/03 10:13:54;;;;;;;12.15;7.90;;;30.60;99.90;;;;;;5033901;28;20621;-64
2021/09/03 10:16:19;;;;;;;9.20;8.18;;;30.50;99.90;;;;;;5033411;28;20183;-64
2021/09/03 10:18:48;;;;;;;9.48;8.20;;;30.60;99.90;;;;;;5033730;28;20198;-64
2021/09/03 10:21:14;;;;;;;8.13;7.32;;;31.10;99.90;;;;;;5032870;28;20190;-63
2021/09/03 10:23:46;;;;;;;9.82;8.82;;;31.00;99.90;;;;;;5033645;28;20572;-65
2021/09/03 10:26:13;;;;;;;9.18;8.27;;;30.60;99.90;;;;;;5033287;28;20175;-64
2021/09/03 10:28:39;;;;;;;10.18;8.40;;;30.30;99.90;;;;;;5033541;28;21807;-64
2021/09/03 10:31:06;;;;;;;9.77;8.68;;;30.20;99.90;;;;;;5032759;28;20691;-64
2021/09/03 10:33:36;;;;;;;8.43;7.60;;;29.80;99.90;;;;;;5033344;28;20194;-65
2021/09/03 10:36:03;;;;;;;9.18;8.27;;;30.00;99.90;;;;;;5033095;28;20191;-64
2021/09/03 10:38:30;;;;;;;10.23;8.13;;;30.00;99.90;;;;;;5033170;28;20265;-64
2021/09/03 10:40:56;;;;;;;9.32;8.43;;;30.30;99.90;;;;;;5078560;23;20227;-66
2021/09/03 10:43:42;;;;;;;8.70;7.97;;;30.60;99.90;;;;;;5032663;28;20729;-66
2021/09/03 10:46:09;;;;;;;9.55;7.85;;;31.20;99.90;;;;;;5032395;28;20171;-67
2021/09/03 10:48:34;;;;;;;8.00;7.38;;;31.40;99.90;;;;;;5032946;28;20266;-67
2021/09/03 10:51:00;;;;;;;9.32;8.50;;;31.10;99.90;;;;;;5032570;28;20310;-66
2021/09/03 10:53:37;;;;;;;8.10;7.13;;;31.00;99.90;;;;;;5031194;28;20712;-66
2021/09/03 10:56:14;;;;;;;10.20;8.60;;;31.10;99.90;;;;;;5032987;28;20167;-66
2021/09/03 10:58:47;;;;;;;7.95;6.93;;;30.70;99.90;;;;;;5032522;28;20174;-65
2021/09/03 11:01:12;;;;;;;9.30;7.43;;;31.10;99.90;;;;;;5031977;28;20167;-66
2021/09/03 11:03:43;;;;;;;8.27;7.45;;;31.50;99.90;;;;;;5032756;28;20317;-67
2021/09/03 11:06:24;;;;;;;9.65;8.70;;;31.60;99.90;;;;;;5032635;28;20172;-66
2021/09/03 11:08:52;;;;;;;8.88;7.35;;;31.20;99.90;;;;;;5031641;28;20167;-67
2021/09/03 11:11:24;;;;;;;8.98;8.07;;;30.90;99.90;;;;;;5032307;28;20175;-66
2021/09/03 11:13:52;;;;;;;10.02;7.65;;;30.60;99.90;;;;;;5013121;28;20223;-66
2021/09/03 11:16:34;;;;;;;7.78;7.05;;;30.60;99.90;;;;;;5012904;28;20272;-66
2021/09/03 11:19:17;;;;;;;10.20;8.07;;;30.50;99.90;;;;;;5012930;28;20251;-67
2021/09/03 11:21:45;;;;;;;7.88;7.18;;;30.70;99.90;;;;;;5014537;28;20263;-66
2021/09/03 11:24:14;;;;;;;8.68;7.90;;;31.10;99.90;;;;;;5032447;28;20179;-66
2021/09/03 11:26:41;;;;;;;8.38;7.57;;;31.10;99.90;;;;;;5032373;28;20176;-66
2021/09/03 11:29:27;;;;;;;8.00;7.20;;;31.20;99.90;;;;;;5032470;28;20787;-65
2021/09/03 11:31:58;;;;;;;8.68;7.93;;;31.40;99.90;;;;;;5032196;28;20253;-65
2021/09/03 11:34:45;;;;;;;8.35;7.45;;;31.50;99.90;;;;;;5032327;28;20178;-66
2021/09/03 11:37:42;;;;;;;8.85;6.78;;;31.60;99.90;;;;;;5031876;28;20588;-66
2021/09/03 11:40:22;;;;;;;7.65;6.93;;;31.60;99.90;;;;;;5019299;28;20294;-66
2021/09/03 11:42:50;;;;;;;7.97;7.30;;;31.60;99.90;;;;;;5032327;28;20194;-66
2021/09/03 11:45:32;;;;;;;8.70;7.85;;;31.30;99.90;;;;;;5031696;28;20186;-67
2021/09/03 11:48:01;;;;;;;7.35;6.65;;;31.10;99.90;;;;;;5032087;28;20183;-66
2021/09/03 11:50:38;;;;;;;7.45;6.75;;;30.50;99.90;;;;;;5031298;28;20251;-64
2021/09/03 11:53:22;;;;;;;7.85;7.15;;;30.30;99.90;;;;;;5031892;28;20633;-67
2021/09/03 11:55:48;;;;;;;7.07;6.50;;;30.60;99.90;;;;;;5012358;28;20180;-66
2021/09/03 11:58:16;;;;;;;7.47;6.80;;;30.50;99.90;;;;;;5012033;28;20266;-65
2021/09/03 12:00:49;;;;;;;7.28;6.65;;;30.40;99.90;;;;;;5031063;28;20253;-68
2021/09/03 12:03:40;;;;;;;7.07;6.57;;;30.20;99.90;;;;;;5031752;28;20655;-66
2021/09/03 12:06:07;;;;;;;7.57;6.75;;;30.20;99.90;;;;;;5004180;28;20261;-65
2021/09/03 12:08:35;;;;;;;7.90;7.22;;;30.30;99.90;;;;;;5027522;28;20184;-66
2021/09/03 12:11:08;;;;;;;8.50;7.75;;;30.00;99.90;;;;;;5031087;28;20555;-65
2021/09/03 12:13:37;;;;;;;8.05;6.78;;;30.00;99.90;;;;;;5031308;28;20179;-65
2021/09/03 12:16:04;;;;;;;7.40;6.70;;;30.20;99.90;;;;;;5031645;28;20226;-66
2021/09/03 12:18:36;;;;;;;7.10;6.50;;;29.90;99.90;;;;;;5031672;28;20228;-66
2021/09/03 12:21:18;;;;;;;8.70;7.72;;;30.10;99.90;;;;;;5030688;28;20191;-65
2021/09/03 12:23:45;;;;;;;7.88;7.20;;;30.30;99.90;;;;;;5031443;28;20175;-65
2021/09/03 12:26:20;;;;;;;8.55;6.55;;;30.50;99.90;;;;;;5031354;28;20183;-66
2021/09/03 12:28:49;;;;;;;6.65;6.15;;;30.80;99.90;;;;;;5031414;28;20167;-65
2021/09/03 12:31:22;;;;;;;7.43;6.72;;;30.80;99.90;;;;;;5011215;28;20191;-66
2021/09/03 12:33:53;;;;;;;7.00;6.40;;;30.80;99.90;;;;;;5028923;28;20245;-65